Stronghurst, Illinois
Current Conditions -  °F | °C
As of 12:53 AM on Monday 24 Nov 2014 (Local Time) from KBRL Reporting Station
Haze Haze  
Wind Chill: 28°   Ceiling: 700
Heat Index: 39°   Visibility: 4mi
Dew Point: 38°   Wind: 23mph
Humidity: 96%   Direction: 320°NW
Pressure: 29.21"   Gusts: 31mph
Location:  40.75°N, 90.9°W
Report Text: KBRL 240653Z AUTO 32020G27KT 4SM BR OVC007 04/03 A2921 RMK AO2 PK WND 32031/0602 CIG 005V010 SLP895 T00390033 $
Loading
Personal Weather Stations






























Interactive Weather Map New forecast layout! Learn more

10-Day Weather Forecast

Advertisements
Track Severe Weather on mobile